createdAt,value
2018-01-31T01:53:38.593Z,12.70
2018-01-31T01:56:06.109Z,10.60
2018-01-31T01:58:33.611Z,11.50
2018-01-31T02:01:01.158Z,14.90
2018-01-31T02:03:29.719Z,10.80
2018-01-31T02:05:57.278Z,11.50
2018-01-31T02:08:24.853Z,9.40
2018-01-31T02:10:52.383Z,10.10
2018-01-31T02:13:19.877Z,15.07
2018-01-31T02:15:47.371Z,11.67
2018-01-31T02:18:15.658Z,10.60
2018-01-31T02:20:43.915Z,9.70
2018-01-31T02:23:11.430Z,10.43
2018-01-31T02:25:38.930Z,15.07
2018-01-31T02:28:06.451Z,11.50
2018-01-31T02:30:34.712Z,11.40
2018-01-31T02:33:02.226Z,11.90
2018-01-31T02:35:30.487Z,10.90
2018-01-31T02:37:58.007Z,14.33
2018-01-31T02:40:25.497Z,12.43
2018-01-31T02:42:53.014Z,12.70
2018-01-31T02:45:20.506Z,10.77
2018-01-31T02:47:48.040Z,11.80
2018-01-31T02:50:15.534Z,10.33
2018-01-31T02:52:43.031Z,12.23
2018-01-31T02:55:10.541Z,10.30
2018-01-31T02:57:38.043Z,11.00
2018-01-31T03:00:05.565Z,10.80
2018-01-31T03:02:33.842Z,8.23
2018-01-31T03:05:01.342Z,8.27
2018-01-31T03:07:28.834Z,8.33
2018-01-31T03:09:56.355Z,6.93
2018-01-31T03:12:23.862Z,8.03
2018-01-31T03:14:51.376Z,7.80
2018-01-31T03:17:20.261Z,6.60
2018-01-31T03:19:47.774Z,9.10
2018-01-31T03:22:15.266Z,6.73
2018-01-31T03:24:43.538Z,6.13
2018-01-31T03:27:11.797Z,5.60
2018-01-31T03:29:39.303Z,6.10
2018-01-31T03:32:06.798Z,10.73
2018-01-31T03:34:34.321Z,7.23
2018-01-31T03:37:01.818Z,7.90
2018-01-31T03:39:29.305Z,8.07
2018-01-31T03:41:57.583Z,7.33
2018-01-31T03:44:25.845Z,7.13
2018-01-31T03:46:54.123Z,5.60
2018-01-31T03:49:22.382Z,6.90
2018-01-31T03:51:49.895Z,8.23
2018-01-31T03:54:17.387Z,6.27
2018-01-31T03:56:44.890Z,8.10
2018-01-31T03:59:13.146Z,6.13
2018-01-31T04:01:41.417Z,8.13
2018-01-31T04:04:08.909Z,7.00
2018-01-31T04:06:36.413Z,9.30
2018-01-31T04:09:03.903Z,8.77
2018-01-31T04:11:32.173Z,8.10
2018-01-31T04:14:00.444Z,7.20
2018-01-31T04:16:27.950Z,8.70
2018-01-31T04:18:55.446Z,8.10
2018-01-31T04:21:22.954Z,7.17
2018-01-31T04:23:50.470Z,8.00
2018-01-31T04:26:17.981Z,9.93
2018-01-31T04:28:45.475Z,10.30
2018-01-31T04:31:12.988Z,7.70
2018-01-31T04:33:40.493Z,8.07
2018-01-31T04:36:08.009Z,8.20
2018-01-31T04:38:35.530Z,8.70
2018-01-31T04:41:03.854Z,11.23
2018-01-31T04:43:31.857Z,8.27
2018-01-31T04:45:59.361Z,12.00
2018-01-31T04:48:26.866Z,9.90
2018-01-31T04:50:54.353Z,9.47
2018-01-31T04:53:22.634Z,11.83
2018-01-31T04:55:50.894Z,11.53
2018-01-31T04:58:18.405Z,12.40
2018-01-31T05:00:45.902Z,12.60
2018-01-31T05:03:13.411Z,11.43
2018-01-31T05:05:40.906Z,13.40
2018-01-31T05:08:08.414Z,10.30
2018-01-31T05:10:35.918Z,11.17
2018-01-31T05:13:03.425Z,12.50
2018-01-31T05:15:30.926Z,12.43
2018-01-31T05:17:58.440Z,11.23
2018-01-31T05:20:25.939Z,16.40
2018-01-31T05:22:53.451Z,13.23
2018-01-31T05:25:21.713Z,13.47
2018-01-31T05:27:49.989Z,12.00
2018-01-31T05:30:18.255Z,12.60
2018-01-31T05:32:45.770Z,10.90
2018-01-31T05:35:13.270Z,13.30
2018-01-31T05:37:40.783Z,10.20
2018-01-31T05:40:08.337Z,12.77
2018-01-31T05:42:35.891Z,11.13
2018-01-31T05:45:03.409Z,13.20
2018-01-31T05:47:31.723Z,12.00
2018-01-31T05:49:59.239Z,12.00
2018-01-31T05:52:26.791Z,10.90
2018-01-31T05:54:54.290Z,10.00
2018-01-31T05:57:21.786Z,9.70
2018-01-31T05:59:49.293Z,13.23
2018-01-31T06:02:17.559Z,13.27
2018-01-31T06:04:45.839Z,11.20
2018-01-31T06:07:14.097Z,12.57
2018-01-31T06:09:41.606Z,10.37
2018-01-31T06:12:09.101Z,10.53
2018-01-31T06:14:36.609Z,12.57
2018-01-31T06:17:04.098Z,12.83
2018-01-31T06:19:31.611Z,11.83
2018-01-31T06:21:59.867Z,8.90
2018-01-31T06:24:27.378Z,10.97
2018-01-31T06:26:54.871Z,8.00
2018-01-31T06:29:22.420Z,12.23
2018-01-31T06:31:49.946Z,12.60
2018-01-31T06:34:17.504Z,11.30
2018-01-31T06:36:45.010Z,10.47
2018-01-31T06:39:12.531Z,10.03
2018-01-31T06:41:40.022Z,9.97
2018-01-31T06:44:07.538Z,15.57
2018-01-31T06:46:35.030Z,16.47
2018-01-31T06:49:02.540Z,17.13
2018-01-31T06:51:30.030Z,10.60
2018-01-31T06:53:57.707Z,10.50
2018-01-31T06:56:25.198Z,13.93
2018-01-31T06:58:53.475Z,13.10
2018-01-31T07:01:21.738Z,13.07
2018-01-31T07:03:49.252Z,15.47
2018-01-31T07:06:16.746Z,16.70
2018-01-31T07:08:44.277Z,15.17
2018-01-31T07:11:11.780Z,16.00
2018-01-31T07:13:40.047Z,13.63
2018-01-31T07:16:07.559Z,14.60
2018-01-31T07:18:35.057Z,13.40
2018-01-31T07:21:02.579Z,12.43
2018-01-31T07:23:30.075Z,14.40
2018-01-31T07:25:57.586Z,14.73
2018-01-31T07:28:25.082Z,14.77
2018-01-31T07:30:52.590Z,12.10
2018-01-31T07:33:20.090Z,13.40
2018-01-31T07:35:47.598Z,11.73
2018-01-31T07:38:15.095Z,10.73
2018-01-31T07:40:42.614Z,14.63
2018-01-31T07:43:10.114Z,11.90
2018-01-31T07:45:37.630Z,11.63
2018-01-31T07:48:05.131Z,17.20
2018-01-31T07:50:32.658Z,15.87
2018-01-31T07:53:00.154Z,15.13
2018-01-31T07:55:27.646Z,13.10
2018-01-31T07:57:55.924Z,16.83
2018-01-31T08:00:24.190Z,15.13
2018-01-31T08:02:52.719Z,16.13
2018-01-31T08:05:20.214Z,14.70
2018-01-31T08:07:47.731Z,11.67
2018-01-31T08:10:15.221Z,14.07
2018-01-31T08:12:42.734Z,11.57
2018-01-31T08:15:10.222Z,10.90
2018-01-31T08:17:37.730Z,11.83
2018-01-31T08:20:05.998Z,11.40
2018-01-31T08:22:34.286Z,11.17
2018-01-31T08:25:02.573Z,9.40
2018-01-31T08:27:30.097Z,14.03
2018-01-31T08:29:57.590Z,9.60
2018-01-31T08:32:25.105Z,8.47
2018-01-31T08:34:53.527Z,8.63
2018-01-31T08:37:21.027Z,8.27
2018-01-31T08:39:48.546Z,10.53
2018-01-31T08:42:16.085Z,8.67
2018-01-31T08:44:43.568Z,12.60
2018-01-31T08:47:11.118Z,10.97
2018-01-31T08:49:38.626Z,16.13
2018-01-31T08:52:06.118Z,7.43
2018-01-31T08:54:35.315Z,10.93
2018-01-31T08:57:02.854Z,12.10
2018-01-31T08:59:30.362Z,12.20
2018-01-31T09:01:57.850Z,9.70
2018-01-31T09:04:25.357Z,11.10
2018-01-31T09:06:52.854Z,11.40
2018-01-31T09:09:20.365Z,11.83
2018-01-31T09:11:48.642Z,11.20
2018-01-31T09:14:16.930Z,9.77
2018-01-31T09:16:44.431Z,11.57
2018-01-31T09:19:11.941Z,10.87
2018-01-31T09:21:39.501Z,13.40
2018-01-31T09:24:07.013Z,9.13
2018-01-31T09:26:34.514Z,8.80
2018-01-31T09:29:02.805Z,10.13
2018-01-31T09:31:30.353Z,12.90
2018-01-31T09:33:57.855Z,12.30
2018-01-31T09:36:25.365Z,13.07
2018-01-31T09:38:53.630Z,11.03
2018-01-31T09:41:21.901Z,10.60
2018-01-31T09:43:50.159Z,8.83
2018-01-31T09:46:17.670Z,10.23
2018-01-31T09:48:45.162Z,9.20
2018-01-31T09:51:12.678Z,9.60
2018-01-31T09:53:40.170Z,7.37
2018-01-31T09:56:07.688Z,9.90
2018-01-31T09:58:35.181Z,10.40
2018-01-31T10:01:02.693Z,11.83
2018-01-31T10:03:30.956Z,9.83
2018-01-31T10:05:59.234Z,8.00
2018-01-31T10:08:27.503Z,11.53
2018-01-31T10:10:55.015Z,10.47
2018-01-31T10:13:22.506Z,9.83
2018-01-31T10:15:50.014Z,10.17
2018-01-31T10:18:17.510Z,10.17
2018-01-31T10:20:45.021Z,14.80
2018-01-31T10:23:12.514Z,13.57
2018-01-31T10:25:40.033Z,13.33
2018-01-31T10:28:07.530Z,10.77
2018-01-31T10:30:35.034Z,8.20
2018-01-31T10:33:03.299Z,10.80
2018-01-31T10:35:30.807Z,10.10
2018-01-31T10:37:58.322Z,10.53
2018-01-31T10:40:26.581Z,8.70
2018-01-31T10:42:54.091Z,12.47
2018-01-31T10:45:21.585Z,8.80
2018-01-31T10:47:49.363Z,10.70
2018-01-31T10:50:16.858Z,9.37
2018-01-31T10:52:44.370Z,9.93
2018-01-31T10:57:39.414Z,13.83
2018-01-31T11:00:07.679Z,9.30
2018-01-31T11:02:35.190Z,8.73
2018-01-31T11:05:02.682Z,6.90
2018-01-31T11:07:30.197Z,6.83
2018-01-31T11:09:57.690Z,9.23
2018-01-31T11:12:25.964Z,7.80
2018-01-31T11:14:53.894Z,6.63
2018-01-31T11:17:22.133Z,9.40
2018-01-31T11:19:49.623Z,6.10
2018-01-31T11:22:17.134Z,9.97
2018-01-31T11:24:44.625Z,6.70
2018-01-31T11:27:12.143Z,7.00
2018-01-31T11:29:39.629Z,4.73
2018-01-31T11:32:07.907Z,4.70
2018-01-31T11:34:36.166Z,7.13
2018-01-31T11:37:05.182Z,5.10
2018-01-31T11:39:33.473Z,4.83
2018-01-31T11:42:00.990Z,7.57
2018-01-31T11:44:29.282Z,5.80
2018-01-31T11:46:56.785Z,4.57
2018-01-31T11:49:24.296Z,5.43
2018-01-31T11:51:52.602Z,5.23
2018-01-31T11:54:20.117Z,3.30
2018-01-31T11:56:48.379Z,4.83
2018-01-31T11:59:15.889Z,4.90
2018-01-31T12:01:43.386Z,6.27
2018-01-31T12:04:10.947Z,4.10
2018-01-31T12:06:39.030Z,4.37
2018-01-31T12:09:19.130Z,5.10
2018-01-31T12:11:47.397Z,6.83
2018-01-31T12:14:27.659Z,5.27
2018-01-31T12:17:15.991Z,7.10
2018-01-31T12:20:06.940Z,4.00
2018-01-31T12:22:46.434Z,6.00
2018-01-31T12:25:25.661Z,7.60
2018-01-31T12:28:05.166Z,5.90
2018-01-31T12:33:44.178Z,8.00
2018-01-31T12:36:23.425Z,5.50
2018-01-31T12:38:59.650Z,5.93
2018-01-31T12:41:27.417Z,7.17
2018-01-31T12:43:55.203Z,7.30
2018-01-31T12:46:34.427Z,20.17
2018-01-31T12:52:13.037Z,5.73
2018-01-31T12:54:52.513Z,5.80
2018-01-31T12:57:30.988Z,5.73
2018-01-31T13:00:10.502Z,5.87
2018-01-31T13:05:58.266Z,5.93
2018-01-31T13:08:37.691Z,9.00
2018-01-31T13:11:17.867Z,9.33
2018-01-31T13:17:01.859Z,7.10
2018-01-31T13:19:41.875Z,7.17
2018-01-31T13:25:27.854Z,8.60
2018-01-31T13:28:12.826Z,4.60
2018-01-31T13:31:03.003Z,5.10
2018-01-31T13:33:42.356Z,5.70
2018-01-31T13:36:21.823Z,5.80
2018-01-31T13:39:01.118Z,7.07
2018-01-31T13:41:40.541Z,5.90
2018-01-31T13:44:19.926Z,4.63
2018-01-31T13:46:59.382Z,6.50
2018-01-31T13:49:38.581Z,4.40
2018-01-31T13:52:23.790Z,8.70
2018-01-31T13:55:04.010Z,5.90
2018-01-31T13:57:43.342Z,6.43
2018-01-31T14:00:22.667Z,5.57
2018-01-31T14:03:02.149Z,5.77
2018-01-31T14:05:41.518Z,4.40
2018-01-31T14:08:20.994Z,4.80
2018-01-31T14:11:00.390Z,6.70
2018-01-31T14:13:39.787Z,5.30
2018-01-31T14:16:19.136Z,5.60
2018-01-31T14:18:58.538Z,4.73
2018-01-31T14:21:37.826Z,3.87
2018-01-31T14:24:17.970Z,6.10
2018-01-31T14:26:57.977Z,4.23
2018-01-31T14:32:51.666Z,5.67
2018-01-31T14:35:30.969Z,5.70
2018-01-31T14:37:57.974Z,4.40
2018-01-31T14:40:24.994Z,6.33
2018-01-31T14:42:51.999Z,5.33
2018-01-31T14:45:19.818Z,4.73
2018-01-31T14:47:46.832Z,7.23
2018-01-31T14:50:13.866Z,6.17
2018-01-31T14:52:40.882Z,5.50
2018-01-31T14:55:07.911Z,4.80
2018-01-31T14:57:34.918Z,7.53
2018-01-31T15:00:01.934Z,5.00
2018-01-31T15:02:29.710Z,5.60
2018-01-31T15:04:57.493Z,4.33
2018-01-31T15:07:24.494Z,4.90
2018-01-31T15:09:51.524Z,5.23
2018-01-31T15:12:18.538Z,4.33
2018-01-31T15:14:45.557Z,4.27
2018-01-31T15:17:13.327Z,4.50
2018-01-31T15:19:40.346Z,3.70
2018-01-31T15:22:07.359Z,6.37
2018-01-31T15:24:34.388Z,2.70
2018-01-31T15:27:01.390Z,7.30
2018-01-31T15:29:29.178Z,5.10
2018-01-31T15:31:56.174Z,4.80
2018-01-31T15:34:23.190Z,6.13
2018-01-31T15:36:50.190Z,6.10
2018-01-31T15:39:17.191Z,4.40
2018-01-31T15:41:44.210Z,6.03
2018-01-31T15:44:11.211Z,4.83
2018-01-31T15:46:38.233Z,7.23
2018-01-31T15:49:05.274Z,6.97
2018-01-31T15:51:32.366Z,7.93
2018-01-31T15:54:01.013Z,6.83
2018-01-31T15:56:28.055Z,8.07
2018-01-31T15:58:55.058Z,5.50
2018-01-31T16:01:22.846Z,8.00
2018-01-31T16:03:49.850Z,5.83
2018-01-31T16:06:16.866Z,9.23
2018-01-31T16:08:43.861Z,6.93
2018-01-31T16:11:11.645Z,5.40
2018-01-31T16:13:38.645Z,7.03
2018-01-31T16:16:05.666Z,20.10
2018-01-31T16:18:45.125Z,65.73
2018-01-31T16:21:22.594Z,38.10
2018-01-31T16:23:50.090Z,5.30
2018-01-31T16:26:17.639Z,4.63
2018-01-31T16:28:57.161Z,14.00
2018-01-31T16:31:36.437Z,5.17
2018-01-31T16:34:04.734Z,8.43
2018-01-31T16:36:32.298Z,5.53
2018-01-31T16:38:59.785Z,4.43
2018-01-31T16:41:27.294Z,5.03
2018-01-31T16:43:55.550Z,5.77
2018-01-31T16:46:23.071Z,10.50
2018-01-31T16:48:50.603Z,10.97
2018-01-31T16:51:18.482Z,6.43
2018-01-31T16:53:45.979Z,3.97
2018-01-31T16:56:13.490Z,16.50
2018-01-31T16:58:40.989Z,5.53
2018-01-31T17:01:08.498Z,4.57
2018-01-31T17:03:35.994Z,4.20
2018-01-31T17:06:03.506Z,9.90
2018-01-31T17:08:31.767Z,5.33
2018-01-31T17:11:00.038Z,7.90
2018-01-31T17:13:27.534Z,5.43
2018-01-31T17:15:55.040Z,3.73
2018-01-31T17:18:22.529Z,5.57
2018-01-31T17:20:50.823Z,8.77
2018-01-31T17:23:19.390Z,5.77
2018-01-31T17:25:59.771Z,9.77
2018-01-31T17:28:28.065Z,11.73
2018-01-31T17:30:55.578Z,3.50
2018-01-31T17:33:23.831Z,3.47
2018-01-31T17:35:51.426Z,4.40
2018-01-31T17:38:19.682Z,2.63
2018-01-31T17:40:47.958Z,4.30
2018-01-31T17:43:15.450Z,13.10
2018-01-31T17:45:42.966Z,5.40
2018-01-31T17:48:10.461Z,5.67
2018-01-31T17:50:37.954Z,3.33
2018-01-31T17:53:05.461Z,4.70
2018-01-31T17:55:33.714Z,4.67
2018-01-31T17:58:01.998Z,3.20
2018-01-31T18:00:29.490Z,6.63
2018-01-31T18:02:57.038Z,5.50
2018-01-31T18:05:24.537Z,3.47
2018-01-31T18:07:52.049Z,4.30
2018-01-31T18:10:20.326Z,4.33
2018-01-31T18:12:48.596Z,5.10
2018-01-31T18:15:16.858Z,6.00
2018-01-31T18:17:44.365Z,6.90
2018-01-31T18:20:11.858Z,4.50
2018-01-31T18:22:39.370Z,4.20
2018-01-31T18:25:06.861Z,4.53
2018-01-31T18:27:34.407Z,6.20
2018-01-31T18:30:01.897Z,7.77
2018-01-31T18:32:29.495Z,4.50
2018-01-31T18:34:56.995Z,5.87
2018-01-31T18:37:24.614Z,6.63
2018-01-31T18:39:52.114Z,3.50
2018-01-31T18:42:19.630Z,4.57
2018-01-31T18:44:47.181Z,5.23
2018-01-31T18:47:15.466Z,5.20
2018-01-31T18:49:43.023Z,5.27
2018-01-31T18:52:10.573Z,5.60
2018-01-31T18:54:38.846Z,5.87
2018-01-31T18:57:07.110Z,6.00
2018-01-31T18:59:35.401Z,3.73
2018-01-31T19:02:03.662Z,5.23
2018-01-31T19:04:31.934Z,4.20
2018-01-31T19:07:00.195Z,4.23
2018-01-31T19:09:27.730Z,3.50
2018-01-31T19:11:55.217Z,2.60
2018-01-31T19:14:22.796Z,3.40
2018-01-31T19:16:51.106Z,5.50
2018-01-31T19:19:18.617Z,9.77
2018-01-31T19:21:46.884Z,9.97
2018-01-31T19:24:14.394Z,11.17
2018-01-31T19:26:41.885Z,11.97
2018-01-31T19:29:09.532Z,17.97
2018-01-31T19:31:37.074Z,37.90
2018-01-31T19:34:04.613Z,66.83
2018-01-31T19:36:32.170Z,126.53
2018-01-31T19:38:59.696Z,51.80
2018-01-31T19:41:27.977Z,25.60
2018-01-31T19:43:55.494Z,36.03
2018-01-31T19:46:22.986Z,25.47
2018-01-31T19:48:50.725Z,28.80
2018-01-31T19:51:18.224Z,27.07
2018-01-31T19:53:46.545Z,12.90
2018-01-31T19:56:14.113Z,13.70
2018-01-31T19:58:41.658Z,8.70
2018-01-31T20:01:09.175Z,6.53
2018-01-31T20:03:37.443Z,5.37
2018-01-31T20:06:05.807Z,9.40
2018-01-31T20:08:33.274Z,7.53
2018-01-31T20:11:00.842Z,7.27
2018-01-31T20:13:29.154Z,7.33
2018-01-31T20:15:56.676Z,5.33
2018-01-31T20:18:24.167Z,3.53
2018-01-31T20:20:51.872Z,5.50
2018-01-31T20:23:19.374Z,5.37
2018-01-31T20:25:47.703Z,4.87
2018-01-31T20:28:15.254Z,4.00
2018-01-31T20:30:42.833Z,3.13
2018-01-31T20:33:10.829Z,44.97
2018-01-31T20:35:39.168Z,69.47
2018-01-31T20:38:06.698Z,32.50
2018-01-31T20:40:34.256Z,6.10
2018-01-31T20:43:01.806Z,4.10
2018-01-31T20:45:29.478Z,4.30
2018-01-31T20:47:57.026Z,4.30
2018-01-31T20:50:24.586Z,4.50
2018-01-31T20:52:52.138Z,3.50
2018-01-31T20:55:19.697Z,7.90
2018-01-31T20:57:47.246Z,4.07
2018-01-31T21:00:15.522Z,2.30
2018-01-31T21:02:43.831Z,5.90
2018-01-31T21:05:11.342Z,4.90
2018-01-31T21:07:38.838Z,5.57
2018-01-31T21:10:06.351Z,3.80
2018-01-31T21:12:33.943Z,5.97
2018-01-31T21:15:01.561Z,6.03
2018-01-31T21:17:29.059Z,4.80
2018-01-31T21:19:57.342Z,5.60
2018-01-31T21:22:25.006Z,5.60
2018-01-31T21:24:52.569Z,4.97
2018-01-31T21:27:20.233Z,4.50
2018-01-31T21:29:47.775Z,5.37
2018-01-31T21:32:15.473Z,3.90
2018-01-31T21:34:43.056Z,5.67
2018-01-31T21:37:10.575Z,4.30
2018-01-31T21:39:38.156Z,4.80
2018-01-31T21:42:05.707Z,5.07
2018-01-31T21:44:33.227Z,6.30
2018-01-31T21:47:01.549Z,8.60
2018-01-31T21:49:29.153Z,5.90
2018-01-31T21:51:57.461Z,4.70
2018-01-31T21:54:25.018Z,6.27
2018-01-31T21:56:52.545Z,9.83
2018-01-31T21:59:20.801Z,4.70
2018-01-31T22:01:48.316Z,7.80
2018-01-31T22:04:15.865Z,5.73
2018-01-31T22:06:43.478Z,6.63
2018-01-31T22:09:11.027Z,5.30
2018-01-31T22:11:38.542Z,6.30
2018-01-31T22:14:06.107Z,5.13
2018-01-31T22:16:33.619Z,5.43
2018-01-31T22:19:01.266Z,6.77
2018-01-31T22:21:28.820Z,5.77
2018-01-31T22:23:56.322Z,4.87
2018-01-31T22:26:24.606Z,5.37
2018-01-31T22:28:52.865Z,6.13
2018-01-31T22:31:21.138Z,5.83
2018-01-31T22:33:49.398Z,8.80
2018-01-31T22:36:16.905Z,6.03
2018-01-31T22:38:44.394Z,8.10
2018-01-31T22:41:11.914Z,8.30
2018-01-31T22:43:39.417Z,6.20
2018-01-31T22:46:06.935Z,6.57
2018-01-31T22:48:34.463Z,8.23
2018-01-31T22:51:03.626Z,7.63
2018-01-31T22:53:31.160Z,6.73
2018-01-31T22:55:58.682Z,6.50
2018-01-31T22:58:26.978Z,12.10
2018-01-31T23:00:54.478Z,5.83
2018-01-31T23:03:21.995Z,5.60
2018-01-31T23:05:49.503Z,5.70
2018-01-31T23:08:17.014Z,8.80
2018-01-31T23:10:44.506Z,7.13
2018-01-31T23:13:17.859Z,6.70
2018-01-31T23:15:45.350Z,7.93
2018-01-31T23:18:18.849Z,7.10
2018-01-31T23:20:46.350Z,6.80
2018-01-31T23:23:14.628Z,8.17
2018-01-31T23:25:42.881Z,7.93
2018-01-31T23:28:10.395Z,10.17
2018-01-31T23:30:37.887Z,6.17
2018-01-31T23:33:05.386Z,7.33
2018-01-31T23:35:33.666Z,5.70
2018-01-31T23:38:01.926Z,7.40
2018-01-31T23:40:30.214Z,7.93
2018-01-31T23:42:58.473Z,7.03
2018-01-31T23:45:26.757Z,6.70
2018-01-31T23:47:54.254Z,10.30
2018-01-31T23:50:21.771Z,7.40
2018-01-31T23:52:50.053Z,6.57
2018-01-31T23:55:18.338Z,9.83
2018-01-31T23:57:46.607Z,7.53
